Time;durP1;ratioP1;P1;durP2;ratioP2;P2;SDS_P1;SDS_P2;PMS_P1;PMS_P2;Temp;Humidity;BMP_temperature;BMP_pressure;BME280_temperature;BME280_humidity;BME280_pressure;Samples;Min_cycle;Max_cycle;Signal;HPM_P1;HPM_P2
2021/08/03 00:01:39;;;;;;;4.20;2.10;;;;;;;20.98;54.34;101280.47;4951346;28;20027;-67
2021/08/03 00:04:13;;;;;;;3.45;2.17;;;;;;;20.96;54.43;101287.03;4951479;28;20405;-64
2021/08/03 00:06:53;;;;;;;3.55;2.13;;;;;;;20.94;54.29;101284.56;4953010;28;20030;-64
2021/08/03 00:09:19;;;;;;;6.22;2.15;;;;;;;20.98;54.73;101284.97;4951100;28;20058;-66
2021/08/03 00:11:47;;;;;;;2.85;1.80;;;;;;;20.98;54.31;101292.97;4952794;28;20133;-64
2021/08/03 00:14:13;;;;;;;3.15;2.22;;;;;;;20.97;54.22;101288.66;4951253;28;20039;-64
2021/08/03 00:16:41;;;;;;;3.45;2.05;;;;;;;20.97;54.50;101286.81;4952453;28;20037;-64
2021/08/03 00:19:08;;;;;;;3.15;2.15;;;;;;;20.98;54.73;101282.31;4952256;28;20073;-65
2021/08/03 00:21:34;;;;;;;3.10;2.05;;;;;;;20.98;54.54;101287.66;4952414;28;20120;-64
2021/08/03 00:24:00;;;;;;;2.65;1.88;;;;;;;20.97;54.49;101281.50;4951501;28;20043;-65
2021/08/03 00:26:26;;;;;;;3.33;2.25;;;;;;;20.97;54.28;101286.81;4952005;28;20057;-65
2021/08/03 00:28:52;;;;;;;3.60;1.75;;;;;;;20.97;54.42;101286.81;4952365;28;20039;-64
2021/08/03 00:31:25;;;;;;;3.72;2.08;;;;;;;20.96;54.29;101279.84;4934975;28;20118;-64
2021/08/03 00:33:55;;;;;;;2.90;1.75;;;;;;;20.98;54.68;101276.97;4960551;28;20065;-65
2021/08/03 00:36:26;;;;;;;3.88;2.22;;;;;;;20.98;54.74;101271.66;4970960;28;20038;-64
2021/08/03 00:38:53;;;;;;;4.38;2.20;;;;;;;20.99;54.51;101270.63;4953911;28;20532;-66
2021/08/03 00:41:26;;;;;;;3.38;2.00;;;;;;;20.97;54.65;101268.16;4952359;29;20038;-65
2021/08/03 00:43:51;;;;;;;3.15;2.00;;;;;;;20.98;54.64;101267.13;4951794;28;20494;-65
2021/08/03 00:46:17;;;;;;;3.63;1.80;;;;;;;20.98;54.34;101260.97;4951967;29;20083;-66
2021/08/03 00:48:43;;;;;;;2.95;1.80;;;;;;;20.97;54.36;101252.16;4951774;29;20027;-65
2021/08/03 00:51:08;;;;;;;3.63;2.30;;;;;;;20.98;54.53;101256.47;4952031;29;20505;-66
2021/08/03 00:53:34;;;;;;;3.22;1.98;;;;;;;20.97;54.23;101254.81;4951575;29;20047;-65
2021/08/03 00:56:00;;;;;;;3.42;1.98;;;;;;;20.97;54.57;101249.47;4951037;28;20039;-65
2021/08/03 00:58:26;;;;;;;2.67;1.95;;;;;;;20.97;54.47;101259.31;4951099;28;20707;-65
2021/08/03 01:00:53;;;;;;;4.15;1.95;;;;;;;20.98;54.56;101252.97;4947690;28;20123;-64
2021/08/03 01:03:19;;;;;;;3.25;2.03;;;;;;;20.98;54.59;101258.31;4951562;28;20406;-65
2021/08/03 01:06:06;;;;;;;3.40;1.77;;;;;;;20.97;54.33;101257.50;4951245;28;20054;-64
2021/08/03 01:08:40;;;;;;;4.13;2.25;;;;;;;20.97;54.44;101260.16;4951169;28;20067;-65
2021/08/03 01:11:14;;;;;;;3.17;1.67;;;;;;;20.97;54.65;101262.00;4950736;28;20089;-64
2021/08/03 01:13:54;;;;;;;2.83;1.83;;;;;;;20.97;54.52;101259.31;4951941;28;20070;-64
2021/08/03 01:16:37;;;;;;;2.78;1.63;;;;;;;20.93;54.60;101258.91;4951025;28;20031;-66
2021/08/03 01:19:12;;;;;;;2.83;1.90;;;;;;;20.97;54.43;101256.66;4951595;28;20023;-64
2021/08/03 01:22:01;;;;;;;3.10;2.05;;;;;;;20.94;54.40;101261.38;4951175;28;20111;-66
2021/08/03 01:24:51;;;;;;;2.60;1.80;;;;;;;20.93;54.60;101253.56;4950182;28;20070;-68
2021/08/03 01:27:26;;;;;;;3.35;2.20;;;;;;;20.96;54.62;101253.16;4951817;28;20035;-67
2021/08/03 01:29:52;;;;;;;2.53;1.85;;;;;;;20.97;54.37;101252.16;4951510;28;20027;-65
2021/08/03 01:32:30;;;;;;;3.00;2.10;;;;;;;20.94;54.76;101247.22;4951242;28;20434;-65
2021/08/03 01:34:59;;;;;;;3.05;1.75;;;;;;;20.98;54.44;101242.31;4954613;28;20042;-67
2021/08/03 01:37:29;;;;;;;3.63;2.00;;;;;;;20.96;54.51;101242.50;4964800;28;20027;-66
2021/08/03 01:39:58;;;;;;;3.00;2.08;;;;;;;20.97;54.45;101244.16;4951172;28;20031;-66
2021/08/03 01:42:25;;;;;;;2.72;1.90;;;;;;;20.98;54.68;101231.63;4951406;28;20090;-66
2021/08/03 01:44:52;;;;;;;3.05;1.75;;;;;;;20.97;54.58;101233.47;4951358;28;20035;-65
2021/08/03 01:47:23;;;;;;;2.90;2.03;;;;;;;20.96;54.60;101233.69;4950646;28;20029;-66
2021/08/03 01:49:51;;;;;;;2.90;1.77;;;;;;;20.98;54.66;101240.47;4950803;28;20117;-67
2021/08/03 01:52:17;;;;;;;3.75;2.10;;;;;;;20.97;54.69;101238.81;4951062;28;20053;-68
2021/08/03 01:54:47;;;;;;;2.42;1.75;;;;;;;20.97;54.54;101232.66;4950454;28;20090;-67
2021/08/03 01:57:15;;;;;;;3.25;1.70;;;;;;;20.98;54.52;101231.63;4950984;28;20038;-66
2021/08/03 01:59:43;;;;;;;3.88;2.00;;;;;;;20.98;54.48;101231.63;4951668;28;20481;-66
2021/08/03 02:02:09;;;;;;;3.10;1.88;;;;;;;20.97;54.47;101235.31;4950302;28;20038;-67
2021/08/03 02:04:36;;;;;;;2.67;1.80;;;;;;;20.99;54.64;101235.94;4950696;28;20047;-66
2021/08/03 02:07:01;;;;;;;2.95;1.75;;;;;;;20.98;54.75;101235.13;4934088;29;20043;-66
2021/08/03 02:09:28;;;;;;;2.78;1.75;;;;;;;20.98;54.60;101232.47;4950542;28;20050;-66
2021/08/03 02:11:54;;;;;;;2.28;1.70;;;;;;;20.97;54.66;101233.47;4950850;28;20039;-67
2021/08/03 02:14:22;;;;;;;3.42;1.90;;;;;;;20.97;54.58;101230.00;4950618;28;20039;-68
2021/08/03 02:16:48;;;;;;;2.90;1.67;;;;;;;20.98;54.31;101231.63;4951318;28;20038;-66
2021/08/03 02:19:14;;;;;;;3.13;1.83;;;;;;;20.97;54.76;101230.00;4952325;28;20035;-66
2021/08/03 02:21:42;;;;;;;2.63;1.70;;;;;;;20.98;54.34;101223.63;4954588;28;20028;-67
2021/08/03 02:24:07;;;;;;;2.88;1.80;;;;;;;20.97;54.45;101220.16;4954023;28;20523;-66
2021/08/03 02:26:33;;;;;;;2.53;1.90;;;;;;;20.98;54.62;101218.31;4954300;28;20043;-66
2021/08/03 02:28:58;;;;;;;2.40;1.60;;;;;;;20.98;54.76;101223.63;4955104;29;20350;-70
2021/08/03 02:31:37;;;;;;;2.90;1.92;;;;;;;20.96;54.73;101223.00;4954667;29;20043;-68
2021/08/03 02:34:28;;;;;;;2.92;1.83;;;;;;;20.93;54.73;101222.38;4963856;28;20058;-66
2021/08/03 02:37:03;;;;;;;2.42;1.75;;;;;;;20.96;54.21;101218.50;4951646;28;20551;-66
2021/08/03 02:39:30;;;;;;;2.88;1.83;;;;;;;20.97;54.60;101220.16;4953937;28;20019;-66
2021/08/03 02:41:57;;;;;;;2.90;1.83;;;;;;;20.98;54.69;101223.63;4954436;28;20102;-66
2021/08/03 02:44:24;;;;;;;3.03;1.73;;;;;;;20.97;54.38;101216.66;4954085;28;20031;-65
2021/08/03 02:46:56;;;;;;;2.85;1.88;;;;;;;20.98;54.60;101215.63;4943726;29;20405;-66
2021/08/03 02:49:45;;;;;;;2.67;1.70;;;;;;;20.97;54.74;101212.16;4953624;28;20023;-66
2021/08/03 02:52:12;;;;;;;2.53;1.80;;;;;;;20.98;54.58;101221.78;4939839;28;20118;-67
2021/08/03 02:54:40;;;;;;;2.67;1.52;;;;;;;20.96;54.67;101215.84;4953333;28;20083;-66
2021/08/03 02:57:09;;;;;;;3.35;1.67;;;;;;;20.97;54.66;101219.31;4954100;29;20495;-66
2021/08/03 02:59:38;;;;;;;2.50;1.60;;;;;;;20.97;54.37;101214.81;4940963;28;20034;-67
2021/08/03 03:02:09;;;;;;;2.90;1.80;;;;;;;20.96;54.32;101213.16;4953503;28;20050;-66
2021/08/03 03:04:49;;;;;;;2.80;1.85;;;;;;;20.94;54.75;101209.88;4954106;28;20516;-68
2021/08/03 03:07:27;;;;;;;3.03;1.98;;;;;;;20.94;54.83;101210.69;4954420;28;20438;-66
2021/08/03 03:09:55;;;;;;;3.15;1.80;;;;;;;20.96;54.39;101210.50;4950903;28;20047;-66
2021/08/03 03:12:25;;;;;;;3.67;2.00;;;;;;;20.96;54.83;101205.16;4949498;28;20074;-66
2021/08/03 03:14:53;;;;;;;2.03;1.35;;;;;;;20.98;54.36;101199.63;4959950;28;20046;-66
2021/08/03 03:17:21;;;;;;;2.45;1.85;;;;;;;20.96;54.73;101199.00;4956739;28;20035;-66
2021/08/03 03:19:48;;;;;;;2.92;1.70;;;;;;;20.97;54.63;101192.66;4967686;28;20608;-66
2021/08/03 03:22:14;;;;;;;2.60;1.70;;;;;;;20.96;54.59;101194.50;4969112;28;20040;-66
2021/08/03 03:24:42;;;;;;;2.85;1.90;;;;;;;20.96;54.70;101196.34;4965190;28;20058;-66
2021/08/03 03:27:09;;;;;;;2.30;1.60;;;;;;;20.96;54.45;101194.50;4969072;28;20424;-66
2021/08/03 03:29:37;;;;;;;2.88;1.85;;;;;;;20.97;54.77;101195.31;4965132;28;20047;-67
2021/08/03 03:32:04;;;;;;;2.53;1.67;;;;;;;20.97;54.31;101195.31;4968430;28;20042;-66
2021/08/03 03:34:32;;;;;;;2.80;1.80;;;;;;;20.96;54.51;101188.34;4965940;28;20060;-68
2021/08/03 03:36:59;;;;;;;2.78;1.73;;;;;;;20.96;54.78;101186.50;4967309;28;20034;-65
2021/08/03 03:39:25;;;;;;;3.17;2.00;;;;;;;20.96;54.79;101177.69;4952628;29;20233;-67
2021/08/03 03:41:54;;;;;;;2.58;1.75;;;;;;;20.97;54.93;101184.66;4953063;28;20134;-72
2021/08/03 03:44:20;;;;;;;2.40;1.60;;;;;;;20.95;54.50;101171.53;4953526;28;20026;-66
2021/08/03 03:46:58;;;;;;;3.15;1.80;;;;;;;20.92;54.58;101175.41;4960058;28;20508;-65
2021/08/03 03:49:30;;;;;;;2.42;1.67;;;;;;;20.96;54.67;101177.69;4952863;28;20074;-66
2021/08/03 03:51:58;;;;;;;3.10;2.03;;;;;;;20.96;54.36;101175.00;4943614;29;20042;-66
2021/08/03 03:54:33;;;;;;;2.60;1.80;;;;;;;20.94;54.49;101170.69;4956499;28;20031;-66
2021/08/03 03:57:03;;;;;;;2.58;1.67;;;;;;;20.94;54.54;101167.22;4953673;28;20041;-67
2021/08/03 03:59:30;;;;;;;2.92;1.77;;;;;;;20.95;54.62;101174.19;4952392;28;20067;-66
2021/08/03 04:01:58;;;;;;;3.75;2.10;;;;;;;20.95;54.69;101168.84;4942584;28;20612;-67
2021/08/03 04:04:25;;;;;;;2.10;1.55;;;;;;;20.94;54.82;101168.03;4951837;28;20038;-65
2021/08/03 04:06:51;;;;;;;2.47;1.70;;;;;;;20.95;54.67;101168.84;4952894;29;20063;-66
2021/08/03 04:09:22;;;;;;;2.70;1.73;;;;;;;20.94;54.40;101168.03;4951387;28;20127;-66
2021/08/03 04:11:49;;;;;;;2.00;1.50;;;;;;;20.94;54.86;101165.38;4952532;28;20031;-66
2021/08/03 04:14:22;;;;;;;3.47;1.90;;;;;;;20.94;54.61;101167.22;4951196;28;20043;-66
2021/08/03 04:16:48;;;;;;;2.53;1.67;;;;;;;20.94;54.47;101170.69;4935382;29;20039;-66
2021/08/03 04:19:14;;;;;;;3.05;1.63;;;;;;;20.95;54.53;101168.84;4955476;28;20523;-66
2021/08/03 04:21:39;;;;;;;2.30;1.60;;;;;;;20.95;54.43;101171.53;4966780;28;20038;-67
2021/08/03 04:24:05;;;;;;;2.45;1.63;;;;;;;20.95;54.51;101163.50;4944056;28;20142;-66
2021/08/03 04:26:30;;;;;;;2.78;1.55;;;;;;;20.94;54.45;101175.22;4964908;28;20037;-66
2021/08/03 04:28:57;;;;;;;2.38;1.58;;;;;;;20.94;54.72;101173.38;4957429;28;20500;-66
2021/08/03 04:31:22;;;;;;;2.83;2.03;;;;;;;20.94;54.86;101165.38;4935279;28;20047;-68
2021/08/03 04:33:47;;;;;;;2.58;1.80;;;;;;;20.94;54.77;101168.03;4952949;29;20038;-66
2021/08/03 04:36:13;;;;;;;3.83;1.90;;;;;;;20.93;54.63;101166.38;4952195;28;20043;-67
2021/08/03 04:38:38;;;;;;;2.55;1.75;;;;;;;20.94;54.84;101170.69;4952123;28;20034;-65
2021/08/03 04:41:04;;;;;;;2.55;1.55;;;;;;;20.95;54.70;101171.53;4934584;28;20066;-72
2021/08/03 04:43:29;;;;;;;2.42;1.48;;;;;;;20.94;54.68;101170.69;4918939;29;20038;-68
2021/08/03 04:45:55;;;;;;;2.50;1.60;;;;;;;20.95;54.91;101168.84;4952200;28;20046;-66
2021/08/03 04:48:20;;;;;;;2.75;1.90;;;;;;;20.94;55.01;101164.53;4951722;28;20050;-66
2021/08/03 04:50:45;;;;;;;2.90;1.65;;;;;;;20.93;54.77;101158.38;4952225;28;20043;-66
2021/08/03 04:53:11;;;;;;;2.08;1.60;;;;;;;20.93;54.97;101157.56;4934630;29;20039;-68
2021/08/03 04:55:36;;;;;;;2.60;1.70;;;;;;;20.94;55.02;101164.53;4951537;28;20034;-67
2021/08/03 04:58:02;;;;;;;3.00;1.80;;;;;;;20.94;55.05;101167.22;4952397;28;20031;-66
2021/08/03 05:00:29;;;;;;;2.70;1.80;;;;;;;20.94;54.63;101161.88;4931413;28;20129;-66
2021/08/03 05:02:54;;;;;;;3.00;1.75;;;;;;;20.93;54.85;101161.06;4941998;28;20043;-65
2021/08/03 05:05:20;;;;;;;2.40;1.60;;;;;;;20.93;55.02;101158.38;4951284;28;20581;-65
2021/08/03 05:08:04;;;;;;;2.20;1.48;;;;;;;20.89;54.95;101165.13;4952436;29;20074;-66
2021/08/03 05:10:30;;;;;;;2.63;1.65;;;;;;;20.92;54.63;101167.41;4951281;28;20075;-69
2021/08/03 05:12:56;;;;;;;2.83;1.75;;;;;;;20.93;54.46;101158.38;4952311;29;20177;-66
2021/08/03 05:15:22;;;;;;;2.95;1.60;;;;;;;20.93;54.94;101161.06;4951285;28;20560;-66
2021/08/03 05:17:48;;;;;;;2.45;1.70;;;;;;;20.93;54.92;101161.06;4956671;28;20038;-68
2021/08/03 05:20:14;;;;;;;2.80;1.67;;;;;;;20.93;54.46;101155.72;4967792;28;20039;-66
2021/08/03 05:22:41;;;;;;;2.58;1.70;;;;;;;20.93;54.75;101155.72;4947645;28;20022;-66
2021/08/03 05:25:07;;;;;;;2.33;1.70;;;;;;;20.93;54.79;101157.56;4966560;28;20066;-66
2021/08/03 05:27:33;;;;;;;3.70;1.70;;;;;;;20.92;54.73;101156.75;4947296;28;20087;-66
2021/08/03 05:29:58;;;;;;;2.80;1.88;;;;;;;20.92;54.86;101159.41;4968040;28;20042;-66
2021/08/03 05:32:23;;;;;;;2.88;1.60;;;;;;;20.94;54.78;101160.03;4965221;28;20393;-71
2021/08/03 05:34:49;;;;;;;3.45;1.60;;;;;;;20.93;54.92;101152.22;4958483;28;20043;-69
2021/08/03 05:37:15;;;;;;;3.63;1.70;;;;;;;20.92;54.82;101156.75;4952008;28;20079;-67
2021/08/03 05:39:40;;;;;;;4.22;1.90;;;;;;;20.93;55.00;101152.22;4951365;28;20444;-67
2021/08/03 05:42:06;;;;;;;3.92;1.75;;;;;;;20.93;55.05;101155.72;4951413;28;20131;-67
2021/08/03 05:44:32;;;;;;;3.95;1.77;;;;;;;20.94;54.98;101162.69;4960564;28;20035;-66
2021/08/03 05:46:59;;;;;;;4.70;1.83;;;;;;;20.94;55.23;101159.22;4942619;29;20091;-69
2021/08/03 05:49:25;;;;;;;3.90;1.67;;;;;;;20.94;55.09;101157.34;4962957;28;20129;-69
2021/08/03 05:51:51;;;;;;;4.10;1.58;;;;;;;20.96;55.07;101161.69;4967282;28;20499;-67
2021/08/03 05:54:16;;;;;;;3.35;1.85;;;;;;;20.96;55.44;101161.69;4967287;28;20050;-68
2021/08/03 05:56:42;;;;;;;4.88;1.63;;;;;;;20.96;55.44;101161.69;4965483;28;20061;-67
2021/08/03 05:59:07;;;;;;;3.60;1.70;;;;;;;20.96;55.14;101164.34;4963756;28;20030;-72
2021/08/03 06:01:33;;;;;;;2.85;1.73;;;;;;;20.94;55.18;101160.03;4952742;28;20031;-66
2021/08/03 06:03:59;;;;;;;4.00;1.63;;;;;;;20.94;55.19;101165.38;4957350;28;20032;-66
2021/08/03 06:06:26;;;;;;;3.05;1.77;;;;;;;20.96;55.41;101167.00;4955453;29;20039;-66
2021/08/03 06:08:53;;;;;;;2.90;1.90;;;;;;;20.96;55.18;101164.34;4936755;28;20035;-69
2021/08/03 06:11:26;;;;;;;3.20;1.77;;;;;;;20.93;55.22;101166.38;4954907;28;20031;-66
2021/08/03 06:13:56;;;;;;;3.97;1.90;;;;;;;20.94;55.02;101157.34;4954389;28;20066;-70
2021/08/03 06:16:24;;;;;;;3.08;1.48;;;;;;;20.96;55.37;101161.69;4938166;29;20035;-68
2021/08/03 06:18:51;;;;;;;5.30;2.03;;;;;;;20.96;55.48;101164.34;4947851;28;20096;-66
2021/08/03 06:21:19;;;;;;;3.40;1.63;;;;;;;20.94;55.00;101160.03;4970871;28;20287;-66
2021/08/03 06:23:47;;;;;;;3.45;2.00;;;;;;;20.96;55.09;101169.66;4968914;28;20065;-66
2021/08/03 06:26:14;;;;;;;2.60;1.70;;;;;;;20.96;55.32;101167.00;4968874;28;20042;-66
2021/08/03 06:28:43;;;;;;;2.90;1.90;;;;;;;20.94;55.05;101164.53;4971264;28;20492;-66
2021/08/03 06:31:10;;;;;;;4.25;1.73;;;;;;;20.95;55.25;101163.50;4965495;28;20035;-67
2021/08/03 06:33:35;;;;;;;2.88;1.70;;;;;;;20.96;55.08;101156.34;4970954;28;20048;-66
2021/08/03 06:36:00;;;;;;;3.97;2.00;;;;;;;20.94;55.31;101161.88;4968322;28;20433;-66
2021/08/03 06:38:26;;;;;;;4.18;1.90;;;;;;;20.94;55.45;101164.53;4970380;28;20035;-66
2021/08/03 06:41:32;;;;;;;2.63;1.85;;;;;;;20.88;55.40;101163.50;4968820;28;20536;-66
2021/08/03 06:44:13;;;;;;;4.10;1.80;;;;;;;20.93;55.24;101163.72;4947519;28;20054;-66
2021/08/03 06:46:44;;;;;;;3.70;1.80;;;;;;;20.93;55.23;101166.38;4968706;28;20037;-68
2021/08/03 06:49:13;;;;;;;3.35;1.80;;;;;;;20.94;55.29;101162.69;4970027;28;20031;-66
2021/08/03 06:51:41;;;;;;;2.25;1.55;;;;;;;20.93;55.17;101161.06;4968550;28;20071;-66
2021/08/03 06:54:11;;;;;;;3.05;1.80;;;;;;;20.93;55.04;101158.38;4969866;28;20543;-68
2021/08/03 06:56:45;;;;;;;3.20;1.88;;;;;;;20.92;55.39;101159.41;4967276;28;20124;-67
2021/08/03 06:59:11;;;;;;;2.88;2.05;;;;;;;20.93;55.43;101155.72;4970706;28;20481;-67
2021/08/03 07:01:59;;;;;;;2.72;1.70;;;;;;;20.90;55.44;101156.13;4951476;28;20031;-66
2021/08/03 07:04:32;;;;;;;3.15;1.60;;;;;;;20.93;55.42;101162.91;4941009;28;20105;-66
2021/08/03 07:07:00;;;;;;;4.28;1.88;;;;;;;20.93;55.08;101158.38;4951589;28;20024;-67
2021/08/03 07:09:27;;;;;;;2.85;1.90;;;;;;;20.93;55.17;101163.72;4957754;28;20035;-67
2021/08/03 07:11:53;;;;;;;2.45;1.70;;;;;;;20.93;55.32;101152.22;4960741;28;20054;-65
2021/08/03 07:14:21;;;;;;;4.78;1.90;;;;;;;20.94;55.86;101159.22;4961124;28;20158;-70
2021/08/03 07:16:47;;;;;;;2.83;1.55;;;;;;;20.94;55.81;101153.88;4935836;29;20058;-68
2021/08/03 07:19:17;;;;;;;2.72;1.80;;;;;;;20.94;55.68;101165.38;4955086;28;20048;-73
2021/08/03 07:21:43;;;;;;;3.45;1.50;;;;;;;20.94;55.84;101160.03;4966123;28;20389;-66
2021/08/03 07:24:12;;;;;;;2.47;1.80;;;;;;;20.94;55.81;101162.69;4959601;28;20497;-67
2021/08/03 07:26:38;;;;;;;5.97;1.80;;;;;;;20.95;55.79;101163.50;4944873;28;20027;-67
2021/08/03 07:29:04;;;;;;;3.80;2.10;;;;;;;20.94;56.29;101159.22;4957523;28;20042;-66
2021/08/03 07:31:32;;;;;;;2.45;1.85;;;;;;;20.96;56.41;101161.69;4962801;28;20042;-68
2021/08/03 07:33:57;;;;;;;3.83;1.67;;;;;;;20.96;56.53;101162.50;4957933;28;20046;-68
2021/08/03 07:36:23;;;;;;;4.90;1.80;;;;;;;20.96;56.69;101167.84;4960992;28;20130;-66
2021/08/03 07:38:54;;;;;;;3.95;1.70;;;;;;;20.97;56.56;101155.31;4959068;28;20500;-68
2021/08/03 07:41:25;;;;;;;3.90;2.05;;;;;;;20.98;56.67;101162.28;4959997;28;20167;-68
2021/08/03 07:43:51;;;;;;;5.03;1.98;;;;;;;20.98;56.82;101164.97;4961235;28;20034;-67
2021/08/03 07:46:16;;;;;;;9.60;3.00;;;;;;;20.97;56.84;101169.47;4959714;28;20397;-68
2021/08/03 07:48:42;;;;;;;13.57;3.55;;;;;;;20.98;56.86;101164.97;4941981;29;20037;-69
2021/08/03 07:51:09;;;;;;;8.82;2.78;;;;;;;20.98;57.22;101171.13;4950668;28;20425;-68
2021/08/03 07:53:35;;;;;;;8.82;2.72;;;;;;;20.98;57.33;101171.13;4934360;29;20035;-69
2021/08/03 07:56:00;;;;;;;5.22;2.70;;;;;;;20.97;57.16;101164.13;4961839;28;20042;-64
2021/08/03 07:58:26;;;;;;;10.27;3.33;;;;;;;20.99;57.24;101169.28;4953005;28;20045;-65
2021/08/03 08:00:51;;;;;;;9.20;3.45;;;;;;;20.99;57.13;101172.78;4945187;28;20062;-65
2021/08/03 08:03:16;;;;;;;15.80;3.63;;;;;;;21.00;57.24;101173.63;4952220;28;20062;-67
2021/08/03 08:05:42;;;;;;;8.43;3.45;;;;;;;20.99;57.32;101175.47;4934826;29;20529;-66
2021/08/03 08:08:07;;;;;;;13.75;3.92;;;;;;;20.99;57.46;101185.28;4952322;28;20393;-67
2021/08/03 08:10:33;;;;;;;10.55;3.45;;;;;;;20.98;57.32;101179.13;4936323;28;20429;-65
2021/08/03 08:12:58;;;;;;;13.82;4.40;;;;;;;20.98;57.23;101178.28;4933843;29;20095;-73
2021/08/03 08:15:24;;;;;;;9.82;4.07;;;;;;;20.97;57.04;101173.97;4948477;28;20043;-64
2021/08/03 08:17:49;;;;;;;13.18;4.32;;;;;;;20.97;57.19;101179.31;4954801;28;20101;-69
2021/08/03 08:20:15;;;;;;;9.65;3.67;;;;;;;20.98;57.15;101180.97;4942942;28;20047;-70
2021/08/03 08:22:44;;;;;;;10.10;3.92;;;;;;;20.97;57.36;101173.97;4932002;28;20083;-69
2021/08/03 08:25:10;;;;;;;12.45;3.63;;;;;;;20.98;57.31;101186.28;4930639;29;20051;-68
2021/08/03 08:27:39;;;;;;;9.18;3.65;;;;;;;20.98;57.41;101179.13;4935972;28;20043;-68
2021/08/03 08:30:05;;;;;;;9.00;3.42;;;;;;;20.99;57.49;101179.94;4956484;28;20070;-68
2021/08/03 08:32:31;;;;;;;11.63;4.30;;;;;;;20.99;57.30;101183.47;4962851;28;20034;-66
2021/08/03 08:34:56;;;;;;;10.27;3.70;;;;;;;20.98;57.09;101187.13;4958321;28;20464;-64
2021/08/03 08:37:21;;;;;;;6.28;3.60;;;;;;;20.97;57.31;101184.66;4943446;28;20480;-67
2021/08/03 08:39:47;;;;;;;8.77;3.90;;;;;;;20.97;57.01;101185.47;4966932;28;20086;-67
2021/08/03 08:42:15;;;;;;;9.00;3.50;;;;;;;20.97;57.32;101184.66;4965620;28;20064;-65
2021/08/03 08:44:45;;;;;;;8.07;3.50;;;;;;;20.97;57.13;101182.81;4931613;28;20031;-65
2021/08/03 08:47:11;;;;;;;9.90;3.90;;;;;;;20.99;57.22;101185.28;4932615;29;20031;-67
2021/08/03 08:49:37;;;;;;;5.80;3.22;;;;;;;20.98;56.83;101184.44;4957898;28;20043;-68
2021/08/03 08:52:04;;;;;;;9.57;3.25;;;;;;;20.99;57.02;101185.28;4950162;28;20047;-67
2021/08/03 08:54:32;;;;;;;6.93;3.30;;;;;;;20.99;56.51;101185.28;4915311;29;20058;-64
2021/08/03 08:56:59;;;;;;;5.63;3.17;;;;;;;20.98;56.24;101186.28;4950783;28;20537;-66
2021/08/03 08:59:25;;;;;;;7.03;3.63;;;;;;;20.98;56.30;101180.97;4941293;28;20038;-68
2021/08/03 09:01:50;;;;;;;9.75;3.45;;;;;;;20.97;56.17;101184.66;4945442;28;20047;-71
2021/08/03 09:04:17;;;;;;;7.60;3.05;;;;;;;20.97;56.42;101176.66;4922215;29;20043;-65
2021/08/03 09:06:42;;;;;;;6.03;3.30;;;;;;;20.96;56.33;101173.16;4949110;28;20031;-66
2021/08/03 09:09:19;;;;;;;6.00;3.30;;;;;;;20.93;56.00;101177.06;4959456;29;20047;-70
2021/08/03 09:11:46;;;;;;;7.68;3.78;;;;;;;20.96;56.27;101175.81;4947810;28;20051;-73
2021/08/03 09:14:12;;;;;;;6.18;3.30;;;;;;;20.96;55.91;101172.34;4946279;28;20122;-67
2021/08/03 09:16:46;;;;;;;5.43;3.13;;;;;;;20.94;55.96;101176.03;4949244;28;20072;-67
2021/08/03 09:19:34;;;;;;;6.70;3.00;;;;;;;20.91;56.50;101172.94;4954352;28;20138;-69
2021/08/03 09:22:33;;;;;;;5.55;2.65;;;;;;;20.89;56.16;101169.66;4946257;28;20043;-67
2021/08/03 09:25:16;;;;;;;5.45;3.05;;;;;;;20.90;56.25;101169.44;4891777;29;20085;-65
2021/08/03 09:27:45;;;;;;;6.35;2.75;;;;;;;20.94;56.01;101176.03;4948075;28;20393;-68
2021/08/03 09:30:37;;;;;;;4.38;2.97;;;;;;;20.90;55.65;101171.28;4949018;28;20496;-68
2021/08/03 09:33:04;;;;;;;5.20;3.08;;;;;;;20.94;55.63;101165.38;4942428;28;20747;-67
2021/08/03 09:35:30;;;;;;;5.38;2.78;;;;;;;20.94;55.59;101164.53;4950612;28;20039;-66
2021/08/03 09:37:57;;;;;;;6.22;2.78;;;;;;;20.94;55.64;101162.69;4950571;28;20489;-68
2021/08/03 09:40:24;;;;;;;8.38;3.15;;;;;;;20.94;55.69;101162.69;4958903;28;20063;-70
2021/08/03 09:43:07;;;;;;;4.85;2.80;;;;;;;20.92;56.09;101161.25;4936696;28;20099;-73
2021/08/03 09:45:36;;;;;;;6.15;2.95;;;;;;;20.95;55.85;101160.84;4950058;28;20039;-66
2021/08/03 09:48:08;;;;;;;4.97;2.38;;;;;;;20.94;55.69;101161.88;4951206;28;20024;-66
2021/08/03 09:50:51;;;;;;;9.43;3.20;;;;;;;20.91;56.18;101155.09;4961885;28;20027;-68
2021/08/03 09:53:38;;;;;;;5.85;2.60;;;;;;;20.92;56.06;101155.91;4959217;28;20131;-65
2021/08/03 09:56:05;;;;;;;7.25;2.67;;;;;;;20.94;55.87;101157.34;4958138;28;20043;-69
2021/08/03 09:58:31;;;;;;;8.60;2.63;;;;;;;20.94;55.76;101149.38;4931857;28;20118;-68
2021/08/03 10:01:08;;;;;;;5.25;2.65;;;;;;;20.93;55.65;101153.06;4934712;29;20054;-66
2021/08/03 10:03:33;;;;;;;7.07;2.80;;;;;;;20.94;55.96;101151.19;4951623;28;20032;-68
2021/08/03 10:05:59;;;;;;;5.03;2.75;;;;;;;20.93;55.58;101147.72;4946487;28;20065;-70
2021/08/03 10:08:24;;;;;;;5.88;2.53;;;;;;;20.94;55.57;101154.69;4925243;29;20111;-70
2021/08/03 10:10:50;;;;;;;6.43;2.72;;;;;;;20.93;55.62;101150.38;4947069;28;20039;-69
2021/08/03 10:13:16;;;;;;;9.55;2.60;;;;;;;20.94;55.62;101154.69;4932502;29;20521;-67
2021/08/03 10:15:41;;;;;;;4.22;2.30;;;;;;;20.92;55.41;101143.41;4934044;28;20122;-73
2021/08/03 10:18:07;;;;;;;7.30;2.78;;;;;;;20.92;55.06;101145.25;4955317;28;20074;-68
2021/08/03 10:20:42;;;;;;;3.88;2.13;;;;;;;20.89;55.34;101151.81;4964312;28;20035;-68
2021/08/03 10:23:08;;;;;;;3.90;2.40;;;;;;;20.89;55.19;101143.81;4957375;28;20034;-69
2021/08/03 10:25:38;;;;;;;5.18;2.33;;;;;;;20.89;55.13;101149.13;4964561;28;20046;-67
2021/08/03 10:28:22;;;;;;;5.53;2.67;;;;;;;20.86;55.24;101144.22;4966932;28;20109;-67
2021/08/03 10:30:48;;;;;;;4.07;2.45;;;;;;;20.88;55.08;101141.34;4964225;28;20031;-70
2021/08/03 10:33:46;;;;;;;4.18;2.45;;;;;;;20.83;54.65;101141.13;4967719;28;20038;-65
2021/08/03 10:36:37;;;;;;;3.13;2.00;;;;;;;20.80;54.67;101136.97;4946417;28;20415;-66
2021/08/03 10:39:09;;;;;;;3.55;2.40;;;;;;;20.83;54.56;101141.94;4965617;28;20109;-66
2021/08/03 10:41:56;;;;;;;5.22;2.65;;;;;;;20.78;54.59;101141.69;4963320;28;20094;-68
2021/08/03 10:44:43;;;;;;;3.63;2.40;;;;;;;20.79;54.39;101145.16;4965252;28;20134;-66
2021/08/03 10:47:31;;;;;;;2.92;2.00;;;;;;;20.78;54.34;101147.00;4955535;28;20106;-67
2021/08/03 10:50:03;;;;;;;4.55;2.10;;;;;;;20.78;54.58;101133.69;4966637;28;20404;-66
2021/08/03 10:52:44;;;;;;;4.22;1.92;;;;;;;20.76;54.04;101135.72;4970557;28;20481;-66
2021/08/03 10:55:28;;;;;;;5.13;2.55;;;;;;;20.75;54.34;101126.09;4967867;28;20069;-66
2021/08/03 10:58:09;;;;;;;;;;;;;;;20.70;54.25;101133.03;4958455;28;20441;-66
2021/08/03 11:00:52;;;;;;;5.53;2.28;;;;;;;20.74;53.93;101131.63;4943436;28;20527;-73
2021/08/03 11:03:35;;;;;;;3.45;2.30;;;;;;;20.72;54.29;101126.50;4956987;28;20031;-66
2021/08/03 11:06:04;;;;;;;3.73;1.90;;;;;;;20.75;53.90;101134.09;4954456;28;20027;-67
2021/08/03 11:08:31;;;;;;;3.40;2.30;;;;;;;20.76;54.08;101138.41;4952668;29;20668;-69
2021/08/03 11:11:05;;;;;;;3.20;2.05;;;;;;;20.76;53.93;101132.25;4953395;28;20039;-66
2021/08/03 11:13:41;;;;;;;3.60;2.15;;;;;;;20.72;53.84;101134.47;4954311;28;20074;-67
2021/08/03 11:16:29;;;;;;;4.28;2.47;;;;;;;20.69;53.82;101140.22;4953692;28;20035;-66
2021/08/03 11:18:57;;;;;;;3.08;2.10;;;;;;;20.73;53.87;101140.63;4953802;28;20045;-68
2021/08/03 11:21:27;;;;;;;3.92;2.28;;;;;;;20.73;53.57;101143.31;4970365;28;20038;-67
2021/08/03 11:24:11;;;;;;;3.20;2.25;;;;;;;20.70;53.37;101146.38;4956411;28;20031;-67
2021/08/03 11:26:54;;;;;;;3.95;2.25;;;;;;;20.67;53.78;101144.91;4952824;28;20031;-68
2021/08/03 11:29:25;;;;;;;5.03;2.10;;;;;;;20.70;53.68;101141.84;4956325;28;20030;-66
2021/08/03 11:31:51;;;;;;;4.20;2.30;;;;;;;20.70;53.89;101139.19;4970256;28;20058;-67
2021/08/03 11:34:33;;;;;;;3.25;2.15;;;;;;;20.67;53.94;101142.25;4966761;28;20118;-67
2021/08/03 11:37:04;;;;;;;3.60;2.30;;;;;;;20.69;53.71;101140.22;4961669;28;20034;-66